createdAt,value
2023-07-24T00:01:21.626Z,8.60
2023-07-24T00:04:08.850Z,7.88
2023-07-24T00:06:58.237Z,7.93
2023-07-24T00:09:45.538Z,7.72
2023-07-24T00:12:35.287Z,7.75
2023-07-24T00:15:23.311Z,7.70
2023-07-24T00:18:10.563Z,7.13
2023-07-24T00:20:58.636Z,7.22
2023-07-24T00:23:47.787Z,7.78
2023-07-24T00:26:35.208Z,7.70
2023-07-24T00:29:23.757Z,7.18
2023-07-24T00:32:11.105Z,7.15
2023-07-24T00:34:59.174Z,7.25
2023-07-24T00:37:46.413Z,7.32
2023-07-24T00:40:35.818Z,7.07
2023-07-24T00:43:23.157Z,7.20
2023-07-24T00:46:12.593Z,6.60
2023-07-24T00:49:01.369Z,7.03
2023-07-24T00:51:49.938Z,6.50
2023-07-24T00:54:38.274Z,7.32
2023-07-24T00:57:27.787Z,6.78
2023-07-24T01:00:16.054Z,6.57
2023-07-24T01:03:03.836Z,7.75
2023-07-24T01:05:52.063Z,7.15
2023-07-24T01:08:39.864Z,6.50
2023-07-24T01:11:30.723Z,6.53
2023-07-24T01:14:24.586Z,6.90
2023-07-24T01:17:15.897Z,6.28
2023-07-24T01:20:08.395Z,7.18
2023-07-24T01:23:14.623Z,6.78
2023-07-24T01:26:04.179Z,7.38
2023-07-24T01:28:52.018Z,6.03
2023-07-24T01:31:39.764Z,7.00
2023-07-24T01:34:27.036Z,6.75
2023-07-24T01:37:15.867Z,6.97
2023-07-24T01:40:04.262Z,6.32
2023-07-24T01:42:53.619Z,6.13
2023-07-24T01:45:41.336Z,6.47
2023-07-24T01:48:29.172Z,6.47
2023-07-24T01:51:17.103Z,5.93
2023-07-24T01:54:04.834Z,6.63
2023-07-24T01:56:52.874Z,6.55
2023-07-24T01:59:42.301Z,6.55
2023-07-24T02:02:30.117Z,6.82
2023-07-24T02:05:18.097Z,6.00
2023-07-24T02:08:05.612Z,7.00
2023-07-24T02:10:53.646Z,6.47
2023-07-24T02:13:40.878Z,6.05
2023-07-24T02:16:30.499Z,6.20
2023-07-24T02:19:18.464Z,6.03
2023-07-24T02:22:06.219Z,5.90
2023-07-24T02:24:56.014Z,7.18
2023-07-24T02:27:45.073Z,6.03
2023-07-24T02:30:32.456Z,7.30
2023-07-24T02:33:21.847Z,6.93
2023-07-24T02:36:09.141Z,7.80
2023-07-24T02:38:57.278Z,7.25
2023-07-24T02:41:44.503Z,6.43
2023-07-24T02:44:35.242Z,7.35
2023-07-24T02:47:23.258Z,7.55
2023-07-24T02:50:12.689Z,7.35
2023-07-24T02:53:00.312Z,7.60
2023-07-24T02:55:48.411Z,7.35
2023-07-24T02:58:35.686Z,7.75
2023-07-24T03:01:23.832Z,6.80
2023-07-24T03:04:11.010Z,7.60
2023-07-24T03:07:00.398Z,8.65
2023-07-24T03:09:48.314Z,7.88
2023-07-24T03:12:36.590Z,7.93
2023-07-24T03:15:24.746Z,9.30
2023-07-24T03:18:11.994Z,8.13
2023-07-24T03:21:02.937Z,8.35
2023-07-24T03:23:52.227Z,9.60
2023-07-24T03:26:40.263Z,8.88
2023-07-24T03:29:27.952Z,8.98
2023-07-24T03:32:16.093Z,9.07
2023-07-24T03:35:03.526Z,9.75
2023-07-24T03:37:51.575Z,9.50
2023-07-24T03:40:40.683Z,9.35
2023-07-24T03:43:27.895Z,9.70
2023-07-24T03:46:15.994Z,9.07
2023-07-24T03:49:03.695Z,9.68
2023-07-24T03:51:50.985Z,9.40
2023-07-24T03:54:39.221Z,9.95
2023-07-24T03:57:28.407Z,10.05
2023-07-24T04:00:15.787Z,10.07
2023-07-24T04:03:03.999Z,11.05
2023-07-24T04:05:51.156Z,11.05
2023-07-24T04:08:39.289Z,10.50
2023-07-24T04:11:26.587Z,9.98
2023-07-24T04:14:15.997Z,10.25
2023-07-24T04:17:03.947Z,11.02
2023-07-24T04:19:51.203Z,10.30
2023-07-24T04:22:39.333Z,10.05
2023-07-24T04:25:26.620Z,10.10
2023-07-24T04:28:14.675Z,10.50
2023-07-24T04:31:03.446Z,10.57
2023-07-24T04:33:51.596Z,9.82
2023-07-24T04:36:39.336Z,9.50
2023-07-24T04:39:27.017Z,11.02
2023-07-24T04:42:14.242Z,10.27
2023-07-24T04:45:02.377Z,10.23
2023-07-24T04:47:51.494Z,10.90
2023-07-24T04:50:38.750Z,10.30
2023-07-24T04:53:26.817Z,9.90
2023-07-24T04:56:14.062Z,10.10
2023-07-24T04:59:02.096Z,10.25
2023-07-24T05:01:49.846Z,10.13
2023-07-24T05:04:38.938Z,9.50
2023-07-24T05:07:26.680Z,9.68
2023-07-24T05:10:15.008Z,9.35
2023-07-24T05:13:02.779Z,8.73
2023-07-24T05:15:50.153Z,9.63
2023-07-24T05:18:40.682Z,8.35
2023-07-24T05:21:30.239Z,9.32
2023-07-24T05:24:17.512Z,10.00
2023-07-24T05:27:05.972Z,8.90
2023-07-24T05:29:53.909Z,8.52
2023-07-24T05:32:41.730Z,9.48
2023-07-24T05:35:29.019Z,8.48
2023-07-24T05:38:18.416Z,6.80
2023-07-24T05:41:05.692Z,8.07
2023-07-24T05:43:53.848Z,7.38
2023-07-24T05:46:41.164Z,8.15
2023-07-24T05:49:29.202Z,7.95
2023-07-24T05:52:16.426Z,7.63
2023-07-24T05:55:06.945Z,7.18
2023-07-24T05:57:54.260Z,7.10
2023-07-24T06:00:42.398Z,8.38
2023-07-24T06:03:29.778Z,8.00
2023-07-24T06:06:17.882Z,7.55
2023-07-24T06:09:05.402Z,7.40
2023-07-24T06:11:54.460Z,8.48
2023-07-24T06:14:41.769Z,8.40
2023-07-24T06:17:29.861Z,8.07
2023-07-24T06:20:17.706Z,7.63
2023-07-24T06:23:05.653Z,7.53
2023-07-24T06:25:54.006Z,8.38
2023-07-24T06:28:44.382Z,8.63
2023-07-24T06:31:32.176Z,8.32
2023-07-24T06:34:19.907Z,7.90
2023-07-24T06:37:17.200Z,7.85
2023-07-24T06:40:11.139Z,7.90
2023-07-24T06:42:58.690Z,7.45
2023-07-24T06:45:48.178Z,7.97
2023-07-24T06:48:35.455Z,7.18
2023-07-24T06:51:23.550Z,7.10
2023-07-24T06:54:11.521Z,7.65
2023-07-24T06:56:59.276Z,8.65
2023-07-24T06:59:47.001Z,7.68
2023-07-24T07:02:35.631Z,8.20
2023-07-24T07:05:23.250Z,7.15
2023-07-24T07:08:10.546Z,8.23
2023-07-24T07:10:58.639Z,7.47
2023-07-24T07:13:45.937Z,8.20
2023-07-24T07:16:33.965Z,8.18
2023-07-24T07:19:22.663Z,8.75
2023-07-24T07:22:10.412Z,7.82
2023-07-24T07:24:57.697Z,7.57
2023-07-24T07:27:45.823Z,8.88
2023-07-24T07:30:33.153Z,8.10
2023-07-24T07:33:23.374Z,8.00
2023-07-24T07:36:13.685Z,8.40
2023-07-24T07:39:00.980Z,8.40
2023-07-24T07:41:49.083Z,8.65
2023-07-24T07:44:36.315Z,8.00
2023-07-24T07:47:24.449Z,8.82
2023-07-24T07:50:12.604Z,9.55
2023-07-24T07:53:01.410Z,8.98
2023-07-24T07:55:57.389Z,9.77
2023-07-24T07:58:44.656Z,8.45
2023-07-24T08:01:32.714Z,8.88
2023-07-24T08:04:20.069Z,9.77
2023-07-24T08:07:08.208Z,8.73
2023-07-24T08:09:57.414Z,10.15
2023-07-24T08:12:45.755Z,9.60
2023-07-24T08:15:37.537Z,9.07
2023-07-24T08:18:24.741Z,8.60
2023-07-24T08:21:12.454Z,8.90
2023-07-24T08:24:01.416Z,8.57
2023-07-24T08:26:50.453Z,8.10
2023-07-24T08:29:38.923Z,8.18
2023-07-24T08:32:27.069Z,7.70
2023-07-24T08:35:14.462Z,7.25
2023-07-24T08:38:02.502Z,7.93
2023-07-24T08:40:50.355Z,7.78
2023-07-24T08:43:40.581Z,7.68
2023-07-24T08:46:29.384Z,6.88
2023-07-24T08:49:17.622Z,6.60
2023-07-24T08:52:07.346Z,7.30
2023-07-24T08:54:59.279Z,6.97
2023-07-24T08:57:48.049Z,7.13
2023-07-24T09:00:37.541Z,7.28
2023-07-24T09:03:25.239Z,5.97
2023-07-24T09:06:12.862Z,7.55
2023-07-24T09:09:00.582Z,6.20
2023-07-24T09:11:49.712Z,6.32
2023-07-24T09:14:37.514Z,6.53
2023-07-24T09:17:26.136Z,7.00
2023-07-24T09:20:14.221Z,6.80
2023-07-24T09:23:14.749Z,6.82
2023-07-24T09:26:07.384Z,6.90
2023-07-24T09:28:55.991Z,6.10
2023-07-24T09:31:44.341Z,6.13
2023-07-24T09:34:34.162Z,5.65
2023-07-24T09:37:26.712Z,5.68
2023-07-24T09:40:16.641Z,5.88
2023-07-24T09:43:30.049Z,5.97
2023-07-24T09:46:12.160Z,5.05
2023-07-24T09:51:57.924Z,5.45
2023-07-24T09:54:55.964Z,3.92
2023-07-24T09:57:46.210Z,4.50
2023-07-24T10:00:34.737Z,4.97
2023-07-24T10:03:23.647Z,4.97
2023-07-24T10:06:12.642Z,4.32
2023-07-24T10:09:02.595Z,4.30
2023-07-24T10:11:49.844Z,4.70
2023-07-24T10:14:39.052Z,3.83
2023-07-24T10:17:36.462Z,3.95
2023-07-24T10:20:23.768Z,4.00
2023-07-24T10:23:16.811Z,4.43
2023-07-24T10:26:06.630Z,4.55
2023-07-24T10:28:55.520Z,4.13
2023-07-24T10:31:54.432Z,4.32
2023-07-24T10:34:42.168Z,4.45
2023-07-24T10:37:36.326Z,4.18
2023-07-24T10:40:24.357Z,4.43
2023-07-24T10:43:14.790Z,4.50
2023-07-24T10:46:02.832Z,4.22
2023-07-24T10:48:52.325Z,4.13
2023-07-24T10:51:39.714Z,4.10
2023-07-24T10:54:27.505Z,4.30
2023-07-24T10:57:15.180Z,4.38
2023-07-24T11:00:05.604Z,4.93
2023-07-24T11:02:54.994Z,4.47
2023-07-24T11:05:42.743Z,4.13
2023-07-24T11:08:32.591Z,4.70
2023-07-24T11:11:19.856Z,5.45
2023-07-24T11:14:16.472Z,4.45
2023-07-24T11:17:05.092Z,4.45
2023-07-24T11:19:52.733Z,4.25
2023-07-24T11:22:40.869Z,5.15
2023-07-24T11:25:29.077Z,5.00
2023-07-24T11:28:16.390Z,4.05
2023-07-24T11:31:04.173Z,4.78
2023-07-24T11:33:54.153Z,5.20
2023-07-24T11:36:41.479Z,4.65
2023-07-24T11:39:29.533Z,4.22
2023-07-24T11:42:17.002Z,4.50
2023-07-24T11:45:05.669Z,4.60
2023-07-24T11:47:55.480Z,5.22
2023-07-24T11:50:45.456Z,5.60
2023-07-24T11:53:33.881Z,5.15
2023-07-24T11:56:22.443Z,4.82
2023-07-24T11:59:11.298Z,4.65
2023-07-24T12:01:58.585Z,5.07
2023-07-24T12:04:45.798Z,5.22
2023-07-24T12:07:36.257Z,4.70
2023-07-24T12:10:28.621Z,4.72
2023-07-24T12:13:19.246Z,4.07
2023-07-24T12:16:07.807Z,4.20
2023-07-24T12:18:55.892Z,4.55
2023-07-24T12:21:43.108Z,3.83
2023-07-24T12:24:32.209Z,4.60
2023-07-24T12:27:19.861Z,4.75
2023-07-24T12:30:08.281Z,4.40
2023-07-24T12:32:56.423Z,4.20
2023-07-24T12:35:44.844Z,3.80
2023-07-24T12:38:32.185Z,4.03
2023-07-24T12:41:20.890Z,4.20
2023-07-24T12:44:08.669Z,4.57
2023-07-24T12:46:56.048Z,4.40
2023-07-24T12:49:43.894Z,4.50
2023-07-24T12:52:31.855Z,4.70
2023-07-24T12:55:19.980Z,4.75
2023-07-24T12:58:09.106Z,4.50
2023-07-24T13:00:56.956Z,4.60
2023-07-24T13:03:44.269Z,4.68
2023-07-24T13:06:32.316Z,4.05
2023-07-24T13:09:20.630Z,4.88
2023-07-24T13:12:09.927Z,4.70
2023-07-24T13:14:59.013Z,4.80
2023-07-24T13:17:47.370Z,5.35
2023-07-24T13:20:34.569Z,5.07
2023-07-24T13:23:22.728Z,4.70
2023-07-24T13:26:11.677Z,5.18
2023-07-24T13:28:59.001Z,4.78
2023-07-24T13:31:47.616Z,5.53
2023-07-24T13:34:35.840Z,5.18
2023-07-24T13:37:25.456Z,5.15
2023-07-24T13:40:13.832Z,6.07
2023-07-24T13:43:01.635Z,5.18
2023-07-24T13:45:48.893Z,4.97
2023-07-24T13:48:38.313Z,5.90
2023-07-24T13:51:25.704Z,5.53
2023-07-24T13:54:13.889Z,4.78
2023-07-24T13:57:01.301Z,4.88
2023-07-24T13:59:49.042Z,5.97
2023-07-24T14:02:36.889Z,5.45
2023-07-24T14:05:26.106Z,4.15
2023-07-24T14:08:13.451Z,4.25
2023-07-24T14:11:00.735Z,3.60
2023-07-24T14:13:48.938Z,3.58
2023-07-24T14:16:36.288Z,3.35
2023-07-24T14:19:27.670Z,3.35
2023-07-24T14:22:16.837Z,3.60
2023-07-24T14:25:05.402Z,3.75
2023-07-24T14:27:53.183Z,3.83
2023-07-24T14:30:40.494Z,3.78
2023-07-24T14:33:28.644Z,3.28
2023-07-24T14:36:16.384Z,3.85
2023-07-24T14:39:06.456Z,2.50
2023-07-24T14:41:53.765Z,2.65
2023-07-24T14:44:42.644Z,2.88
2023-07-24T14:47:30.249Z,2.70
2023-07-24T14:50:18.421Z,2.60
2023-07-24T14:53:05.743Z,2.70
2023-07-24T14:55:55.201Z,2.97
2023-07-24T14:58:46.748Z,2.92
2023-07-24T15:01:34.258Z,3.00
2023-07-24T15:04:22.744Z,2.90
2023-07-24T15:07:10.069Z,2.63
2023-07-24T15:09:58.268Z,3.10
2023-07-24T15:12:47.146Z,3.00
2023-07-24T15:15:35.357Z,3.20
2023-07-24T15:18:22.617Z,2.97
2023-07-24T15:21:11.201Z,3.00
2023-07-24T15:23:58.452Z,2.33
2023-07-24T15:26:46.967Z,2.80
2023-07-24T15:29:35.962Z,3.28
2023-07-24T15:32:23.998Z,3.40
2023-07-24T15:35:11.240Z,3.53
2023-07-24T15:37:58.545Z,3.22
2023-07-24T15:40:46.749Z,3.30
2023-07-24T15:43:34.165Z,3.65
2023-07-24T15:46:23.374Z,3.10
2023-07-24T15:49:10.853Z,2.80
2023-07-24T15:51:58.988Z,3.13
2023-07-24T15:54:46.261Z,2.88
2023-07-24T15:57:34.472Z,2.85
2023-07-24T16:00:21.813Z,2.72
2023-07-24T16:03:11.307Z,2.55
2023-07-24T16:05:59.035Z,2.85
2023-07-24T16:08:46.396Z,3.20
2023-07-24T16:11:34.524Z,3.47
2023-07-24T16:14:21.827Z,2.92
2023-07-24T16:17:10.659Z,3.17
2023-07-24T16:19:59.252Z,2.88
2023-07-24T16:22:47.325Z,3.30
2023-07-24T16:25:34.629Z,2.92
2023-07-24T16:28:23.935Z,2.63
2023-07-24T16:31:11.282Z,5.45
2023-07-24T16:34:00.122Z,2.97
2023-07-24T16:36:48.924Z,3.67
2023-07-24T16:39:36.621Z,3.20
2023-07-24T16:42:24.524Z,3.60
2023-07-24T16:48:15.926Z,2.80
2023-07-24T16:51:03.514Z,2.97
2023-07-24T16:53:52.934Z,2.92
2023-07-24T16:56:40.916Z,3.05
2023-07-24T16:59:29.397Z,3.10
2023-07-24T17:02:16.706Z,4.03
2023-07-24T17:05:04.776Z,3.08
2023-07-24T17:07:52.550Z,3.47
2023-07-24T17:10:46.421Z,3.72
2023-07-24T17:13:35.697Z,3.58
2023-07-24T17:16:23.194Z,3.65
2023-07-24T17:19:11.310Z,3.85
2023-07-24T17:21:59.051Z,4.10
2023-07-24T17:24:46.334Z,3.70
2023-07-24T17:27:38.332Z,4.05
2023-07-24T17:30:25.693Z,3.80
2023-07-24T17:33:13.781Z,3.53
2023-07-24T17:36:01.023Z,3.20
2023-07-24T17:38:49.105Z,3.92
2023-07-24T17:41:36.918Z,3.90
2023-07-24T17:44:25.731Z,3.67
2023-07-24T17:47:13.513Z,3.92
2023-07-24T17:50:07.947Z,3.67
2023-07-24T17:52:56.950Z,3.30
2023-07-24T17:55:44.838Z,4.07
2023-07-24T17:58:32.187Z,3.72
2023-07-24T18:01:23.218Z,3.60
2023-07-24T18:04:11.180Z,4.07
2023-07-24T18:06:59.458Z,4.28
2023-07-24T18:09:47.604Z,4.88
2023-07-24T18:12:35.347Z,4.45
2023-07-24T18:15:23.633Z,4.82
2023-07-24T18:18:12.265Z,3.85
2023-07-24T18:21:04.456Z,4.20
2023-07-24T18:23:53.965Z,3.67
2023-07-24T18:26:41.606Z,4.43
2023-07-24T18:29:29.483Z,3.63
2023-07-24T18:32:16.712Z,4.10
2023-07-24T18:35:06.643Z,4.03
2023-07-24T18:37:53.945Z,4.28
2023-07-24T18:40:41.751Z,4.32
2023-07-24T18:43:29.481Z,4.68
2023-07-24T18:46:18.136Z,4.82
2023-07-24T18:49:05.776Z,4.40
2023-07-24T18:51:54.360Z,4.75
2023-07-24T18:54:42.372Z,4.55
2023-07-24T18:57:30.141Z,5.15
2023-07-24T19:00:18.715Z,4.38
2023-07-24T19:03:06.476Z,4.05
2023-07-24T19:05:53.896Z,4.80
2023-07-24T19:08:43.313Z,4.95
2023-07-24T19:11:30.898Z,4.68
2023-07-24T19:14:20.972Z,4.85
2023-07-24T19:17:08.329Z,5.03
2023-07-24T19:19:56.427Z,5.55
2023-07-24T19:22:43.655Z,5.25
2023-07-24T19:25:33.153Z,5.38
2023-07-24T19:28:20.937Z,5.35
2023-07-24T19:31:08.153Z,6.05
2023-07-24T19:33:55.792Z,5.97
2023-07-24T19:36:43.044Z,6.35
2023-07-24T19:39:32.317Z,5.90
2023-07-24T19:42:21.340Z,4.93
2023-07-24T19:45:08.934Z,5.75
2023-07-24T19:47:56.614Z,6.15
2023-07-24T19:50:48.604Z,5.07
2023-07-24T19:53:36.297Z,5.82
2023-07-24T19:56:23.506Z,5.93
2023-07-24T19:59:13.557Z,5.85
2023-07-24T20:02:02.321Z,5.50
2023-07-24T20:04:50.074Z,5.55
2023-07-24T20:07:37.325Z,6.30
2023-07-24T20:10:25.398Z,6.50
2023-07-24T20:13:12.635Z,5.82
2023-07-24T20:16:02.106Z,5.72
2023-07-24T20:18:49.300Z,6.53
2023-07-24T20:21:37.441Z,6.30
2023-07-24T20:24:24.739Z,6.15
2023-07-24T20:27:12.427Z,6.05
2023-07-24T20:30:01.733Z,6.15
2023-07-24T20:32:50.322Z,5.93
2023-07-24T20:35:39.086Z,5.97
2023-07-24T20:38:29.169Z,5.53
2023-07-24T20:41:16.675Z,5.45
2023-07-24T20:44:06.440Z,5.55
2023-07-24T20:46:54.057Z,5.18
2023-07-24T20:49:43.071Z,4.80
2023-07-24T20:52:30.377Z,4.78
2023-07-24T20:55:18.605Z,4.60
2023-07-24T20:58:06.379Z,4.68
2023-07-24T21:00:53.804Z,4.45
2023-07-24T21:03:41.998Z,4.10
2023-07-24T21:06:30.595Z,4.60
2023-07-24T21:09:19.382Z,4.35
2023-07-24T21:12:07.602Z,4.30
2023-07-24T21:14:55.652Z,3.85
2023-07-24T21:17:43.404Z,3.75
2023-07-24T21:20:30.580Z,4.00
2023-07-24T21:23:19.922Z,4.68
2023-07-24T21:26:07.621Z,4.20
2023-07-24T21:28:55.574Z,4.25
2023-07-24T21:31:42.867Z,3.88
2023-07-24T21:34:31.631Z,4.35
2023-07-24T21:37:19.339Z,4.55
2023-07-24T21:40:09.461Z,4.65
2023-07-24T21:42:57.465Z,4.40
2023-07-24T21:45:45.216Z,4.03
2023-07-24T21:48:32.488Z,4.20
2023-07-24T21:51:20.842Z,4.25
2023-07-24T21:54:08.605Z,3.75
2023-07-24T21:56:57.633Z,4.40
2023-07-24T21:59:44.864Z,3.97
2023-07-24T22:02:32.984Z,4.35
2023-07-24T22:05:20.168Z,3.55
2023-07-24T22:08:08.260Z,3.50
2023-07-24T22:10:55.465Z,3.95
2023-07-24T22:13:45.132Z,3.58
2023-07-24T22:16:32.394Z,3.90
2023-07-24T22:19:20.437Z,3.28
2023-07-24T22:22:08.281Z,3.83
2023-07-24T22:24:55.594Z,3.13
2023-07-24T22:27:43.715Z,3.75
2023-07-24T22:30:32.343Z,3.63
2023-07-24T22:33:20.418Z,3.78
2023-07-24T22:36:07.705Z,3.33
2023-07-24T22:38:55.824Z,3.80
2023-07-24T22:41:44.743Z,3.17
2023-07-24T22:44:31.910Z,3.05
2023-07-24T22:47:21.529Z,3.55
2023-07-24T22:50:09.217Z,3.10
2023-07-24T22:52:58.236Z,3.17
2023-07-24T22:55:46.315Z,3.70
2023-07-24T22:58:53.755Z,3.30
2023-07-24T23:01:41.066Z,3.25
2023-07-24T23:04:30.541Z,3.00
2023-07-24T23:07:18.656Z,3.58
2023-07-24T23:10:07.403Z,3.13
2023-07-24T23:12:54.606Z,2.92
2023-07-24T23:15:42.744Z,3.75
2023-07-24T23:18:30.078Z,3.53
2023-07-24T23:21:19.159Z,3.90
2023-07-24T23:24:07.336Z,3.78
2023-07-24T23:26:54.604Z,3.47
2023-07-24T23:29:42.749Z,3.70
2023-07-24T23:32:30.569Z,3.47
2023-07-24T23:35:17.799Z,3.03
2023-07-24T23:38:07.313Z,3.80
2023-07-24T23:40:58.399Z,3.88
2023-07-24T23:43:46.168Z,3.42
2023-07-24T23:46:33.460Z,3.42
2023-07-24T23:49:21.664Z,3.53
2023-07-24T23:52:09.334Z,3.63
2023-07-24T23:54:58.718Z,3.38
2023-07-24T23:57:46.417Z,3.42
